createdAt,value
2024-05-09T00:07:43.107Z,97447.77
2024-05-09T00:17:46.364Z,97442.42
2024-05-09T00:27:49.729Z,97451.33
2024-05-09T00:37:52.695Z,97453.98
2024-05-09T00:47:56.127Z,97455.00
2024-05-09T00:57:59.242Z,97453.73
2024-05-09T01:08:03.110Z,97451.95
2024-05-09T01:18:11.946Z,97456.87
2024-05-09T01:28:16.656Z,97452.34
2024-05-09T01:38:19.999Z,97453.98
2024-05-09T01:48:23.541Z,97456.80
2024-05-09T01:58:26.987Z,97460.81
2024-05-09T02:08:30.282Z,97457.61
2024-05-09T02:18:33.801Z,97456.88
2024-05-09T02:28:37.120Z,97461.55
2024-05-09T02:38:40.128Z,97458.95
2024-05-09T02:48:43.684Z,97462.74
2024-05-09T02:58:46.723Z,97471.73
2024-05-09T03:08:49.784Z,97471.26
2024-05-09T03:18:54.888Z,97473.89
2024-05-09T03:28:58.232Z,97485.58
2024-05-09T03:39:01.268Z,97486.10
2024-05-09T03:49:04.441Z,97484.02
2024-05-09T03:59:07.419Z,97483.48
2024-05-09T04:09:10.378Z,97491.41
2024-05-09T04:19:13.479Z,97492.08
2024-05-09T04:29:17.023Z,97494.80
2024-05-09T04:39:20.283Z,97490.41
2024-05-09T04:49:23.771Z,97499.70
2024-05-09T04:59:27.079Z,97509.07
2024-05-09T05:09:30.207Z,97515.73
2024-05-09T05:19:33.478Z,97511.64
2024-05-09T05:29:36.920Z,97521.88
2024-05-09T05:39:40.039Z,97525.79
2024-05-09T05:49:43.179Z,97528.04
2024-05-09T05:59:46.472Z,97523.41
2024-05-09T06:09:50.470Z,97515.88
2024-05-09T06:19:53.989Z,97508.98
2024-05-09T06:29:57.151Z,97511.48
2024-05-09T06:40:00.047Z,97514.76
2024-05-09T06:50:03.740Z,97514.98
2024-05-09T07:00:15.385Z,97508.14
2024-05-09T07:10:28.682Z,97512.55
2024-05-09T07:20:37.406Z,97503.45
2024-05-09T07:30:41.240Z,97509.32
2024-05-09T07:40:44.428Z,97515.88
2024-05-09T08:00:54.740Z,97518.60
2024-05-09T08:10:57.985Z,97511.65
2024-05-09T08:21:01.179Z,97514.61
2024-05-09T08:31:06.928Z,97515.66
2024-05-09T08:41:14.424Z,97513.44
2024-05-09T08:51:17.588Z,97518.09
2024-05-09T09:01:21.070Z,97511.88
2024-05-09T09:11:24.515Z,97517.59
2024-05-09T09:21:27.478Z,97511.80
2024-05-09T09:31:31.089Z,97508.04
2024-05-09T09:41:36.870Z,97510.13
2024-05-09T09:51:43.678Z,97505.71
2024-05-09T10:01:47.357Z,97497.68
2024-05-09T10:11:54.499Z,97504.86
2024-05-09T10:22:04.650Z,97510.45
2024-05-09T10:32:08.716Z,97507.30
2024-05-09T10:42:11.851Z,97497.90
2024-05-09T10:52:19.636Z,97498.29
2024-05-09T11:02:22.962Z,97493.46
2024-05-09T11:12:26.801Z,97491.48
2024-05-09T11:22:33.324Z,97491.39
2024-05-09T11:32:37.615Z,97482.89
2024-05-09T11:42:40.762Z,97481.33
2024-05-09T11:52:44.178Z,97474.81
2024-05-09T12:02:47.148Z,97466.48
2024-05-09T12:12:50.784Z,97467.72
2024-05-09T12:22:54.194Z,97461.84
2024-05-09T12:32:57.578Z,97447.33
2024-05-09T12:43:00.729Z,97443.71
2024-05-09T12:53:05.209Z,97433.66
2024-05-09T13:03:08.693Z,97430.36
2024-05-09T13:13:12.622Z,97421.51
2024-05-09T13:23:16.005Z,97411.81
2024-05-09T13:33:19.311Z,97399.25
2024-05-09T13:43:23.393Z,97400.56
2024-05-09T13:53:26.907Z,97392.05
2024-05-09T14:03:30.156Z,97383.73
2024-05-09T14:13:33.647Z,97379.94
2024-05-09T14:23:36.676Z,97379.90
2024-05-09T14:33:40.155Z,97380.81
2024-05-09T14:43:43.204Z,97371.55
2024-05-09T14:53:46.365Z,97365.85
2024-05-09T15:03:49.795Z,97359.60
2024-05-09T15:13:52.995Z,97351.09
2024-05-09T15:23:56.021Z,97337.36
2024-05-09T15:33:59.538Z,97332.09
2024-05-09T15:44:02.722Z,97328.44
2024-05-09T15:54:05.861Z,97325.92
2024-05-09T16:04:10.855Z,97332.92
2024-05-09T16:14:16.634Z,97330.10
2024-05-09T16:24:19.663Z,97330.36
2024-05-09T16:34:22.882Z,97328.80
2024-05-09T16:44:26.149Z,97327.59
2024-05-09T16:54:29.206Z,97333.83
2024-05-09T17:04:32.315Z,97331.13
2024-05-09T17:14:35.665Z,97327.77
2024-05-09T17:24:38.824Z,97331.44
2024-05-09T17:34:42.394Z,97335.28
2024-05-09T17:44:45.335Z,97331.23
2024-05-09T17:54:48.622Z,97333.80
2024-05-09T18:04:51.760Z,97338.63
2024-05-09T18:14:54.862Z,97347.73
2024-05-09T18:24:57.988Z,97355.23
2024-05-09T18:35:04.729Z,97368.72
2024-05-09T18:45:08.581Z,97381.83
2024-05-09T18:55:14.928Z,97397.69
2024-05-09T19:05:18.466Z,97402.11
2024-05-09T19:15:21.506Z,97406.27
2024-05-09T19:25:24.806Z,97416.99
2024-05-09T19:35:28.126Z,97419.48
2024-05-09T19:45:36.357Z,97424.45
2024-05-09T19:55:42.990Z,97430.20
2024-05-09T20:05:49.371Z,97434.94
2024-05-09T20:15:53.090Z,97447.86
2024-05-09T20:25:56.201Z,97449.48
2024-05-09T20:36:01.809Z,97447.35
2024-05-09T20:46:08.129Z,97449.57
2024-05-09T20:56:11.658Z,97448.59
2024-05-09T21:06:14.692Z,97450.62
2024-05-09T21:16:17.912Z,97455.81
2024-05-09T21:26:23.839Z,97461.98
2024-05-09T21:36:27.281Z,97457.66
2024-05-09T21:46:30.342Z,97458.66
2024-05-09T21:56:33.504Z,97473.42
2024-05-09T22:06:36.891Z,97470.04
2024-05-09T22:16:41.068Z,97467.41
2024-05-09T22:26:44.935Z,97467.52
2024-05-09T22:36:48.634Z,97463.79
2024-05-09T22:46:52.106Z,97458.71
2024-05-09T22:56:55.239Z,97461.59
2024-05-09T23:06:58.531Z,97457.88
2024-05-09T23:17:01.886Z,97460.89
2024-05-09T23:27:05.133Z,97462.69
2024-05-09T23:37:10.876Z,97463.61
2024-05-09T23:47:14.231Z,97458.98
2024-05-09T23:57:17.472Z,97452.67
